Time;durP1;ratioP1;P1;durP2;ratioP2;P2;SDS_P1;SDS_P2;PMS_P1;PMS_P2;Temp;Humidity;BMP_temperature;BMP_pressure;BME280_temperature;BME280_humidity;BME280_pressure;Samples;Min_cycle;Max_cycle;Signal;HPM_P1;HPM_P2
2023/08/09 00:00:43;;;;;;;2.97;1.30;;;18.40;82.80;;;;;;4974259;28;20023;-93
2023/08/09 00:03:09;;;;;;;2.88;1.42;;;18.30;82.00;;;;;;4975527;28;20046;-93
2023/08/09 00:05:34;;;;;;;2.70;1.60;;;18.30;82.00;;;;;;4975023;28;20545;-93
2023/08/09 00:08:00;;;;;;;3.08;1.35;;;18.30;82.00;;;;;;4990173;28;20480;-93
2023/08/09 00:10:26;;;;;;;3.47;1.70;;;18.30;82.10;;;;;;4973746;28;20031;-93
2023/08/09 00:12:52;;;;;;;2.80;1.90;;;18.30;82.10;;;;;;4973716;28;20064;-92
2023/08/09 00:15:18;;;;;;;5.43;1.63;;;18.30;82.10;;;;;;4990050;28;20023;-93
2023/08/09 00:17:44;;;;;;;3.47;1.63;;;18.30;82.10;;;;;;4976520;28;20031;-91
2023/08/09 00:20:14;;;;;;;2.95;1.52;;;18.30;82.20;;;;;;4970400;28;20015;-93
2023/08/09 00:22:40;;;;;;;4.50;1.70;;;18.30;82.20;;;;;;4970611;28;20384;-92
2023/08/09 00:25:09;;;;;;;3.17;1.30;;;18.30;82.20;;;;;;4986726;28;20030;-94
2023/08/09 00:27:34;;;;;;;4.78;1.63;;;18.30;82.20;;;;;;4992152;28;20077;-92
2023/08/09 00:30:00;;;;;;;4.80;1.80;;;18.30;82.30;;;;;;4974543;28;20071;-92
2023/08/09 00:32:26;;;;;;;1.70;1.58;;;18.30;82.40;;;;;;4987634;28;20121;-92
2023/08/09 00:34:51;;;;;;;3.30;1.80;;;18.30;82.40;;;;;;4978825;28;20027;-91
2023/08/09 00:37:17;;;;;;;1.60;1.40;;;18.30;82.40;;;;;;4976574;28;20031;-93
2023/08/09 00:39:43;;;;;;;1.98;1.50;;;18.40;82.50;;;;;;4986869;28;20107;-93
2023/08/09 00:42:08;;;;;;;2.60;1.50;;;18.30;82.50;;;;;;4976834;28;20038;-93
2023/08/09 00:44:34;;;;;;;3.05;1.77;;;18.30;82.50;;;;;;4968335;28;20023;-93
2023/08/09 00:46:59;;;;;;;3.92;1.60;;;18.30;82.50;;;;;;4981287;28;20014;-94
2023/08/09 00:49:25;;;;;;;3.28;1.50;;;18.30;82.50;;;;;;4969333;28;20111;-90
2023/08/09 00:51:52;;;;;;;1.80;1.50;;;18.30;82.60;;;;;;4977407;28;20038;-91
2023/08/09 00:54:19;;;;;;;3.55;1.75;;;18.30;82.60;;;;;;4976752;28;20027;-94
2023/08/09 00:56:45;;;;;;;2.78;1.58;;;18.30;82.60;;;;;;4975606;28;20022;-92
2023/08/09 00:59:11;;;;;;;3.45;1.58;;;18.40;82.70;;;;;;4993401;28;20544;-93
2023/08/09 01:01:38;;;;;;;3.60;1.80;;;18.30;82.70;;;;;;4978854;28;20026;-93
2023/08/09 01:04:03;;;;;;;5.65;1.80;;;18.20;82.70;;;;;;4974328;28;20030;-91
2023/08/09 01:06:34;;;;;;;4.80;1.70;;;18.30;82.70;;;;;;4976278;28;20722;-95
2023/08/09 01:09:03;;;;;;;1.73;1.38;;;18.30;83.50;;;;;;4971574;28;20123;-93
2023/08/09 01:11:49;;;;;;;3.75;1.52;;;18.20;82.80;;;;;;4974043;28;20027;-94
2023/08/09 01:14:17;;;;;;;6.57;2.15;;;18.30;82.80;;;;;;4983448;28;20062;-93
2023/08/09 01:16:44;;;;;;;2.40;1.52;;;18.30;82.90;;;;;;4978304;28;20069;-94
2023/08/09 01:19:35;;;;;;;3.17;1.67;;;18.20;82.80;;;;;;4988980;28;20022;-95
2023/08/09 01:22:07;;;;;;;1.50;1.25;;;18.20;82.90;;;;;;4973253;28;20766;-94
2023/08/09 01:24:33;;;;;;;3.63;1.63;;;18.20;82.90;;;;;;4974202;28;20023;-93
2023/08/09 01:26:59;;;;;;;7.90;1.95;;;18.20;83.00;;;;;;4988122;28;20023;-94
2023/08/09 01:29:25;;;;;;;4.78;1.85;;;18.40;83.20;;;;;;4990973;28;20030;-95
2023/08/09 01:31:51;;;;;;;1.95;1.63;;;18.20;83.10;;;;;;4973485;28;20065;-93
2023/08/09 01:34:17;;;;;;;2.03;1.50;;;18.20;83.20;;;;;;4973535;28;20380;-96
2023/08/09 01:36:46;;;;;;;2.00;1.60;;;18.20;83.20;;;;;;4975531;28;20285;-94
2023/08/09 01:39:16;;;;;;;2.47;1.50;;;18.20;83.20;;;;;;4988211;28;20486;-93
2023/08/09 01:41:45;;;;;;;5.88;1.83;;;18.30;83.30;;;;;;4972464;28;20019;-94
2023/08/09 01:44:12;;;;;;;4.07;1.60;;;18.30;83.30;;;;;;4987502;28;20022;-92
2023/08/09 01:46:38;;;;;;;2.55;1.70;;;18.20;83.30;;;;;;4973149;28;20022;-94
2023/08/09 01:49:12;;;;;;;3.92;1.42;;;18.20;83.30;;;;;;4974490;28;20034;-96
2023/08/09 01:51:38;;;;;;;2.30;1.65;;;18.20;83.30;;;;;;4974993;28;20023;-96
2023/08/09 01:54:06;;;;;;;3.40;2.17;;;18.30;83.40;;;;;;4973504;28;20031;-94
2023/08/09 01:56:31;;;;;;;2.15;1.60;;;18.20;83.30;;;;;;4996594;28;20110;-95
2023/08/09 01:58:57;;;;;;;2.05;1.52;;;18.20;83.40;;;;;;4987749;28;20098;-96
2023/08/09 02:01:23;;;;;;;6.35;1.50;;;18.20;83.50;;;;;;4980688;28;20495;-94
2023/08/09 02:03:49;;;;;;;3.28;1.88;;;18.20;84.30;;;;;;4972990;28;20077;-96
2023/08/09 02:06:15;;;;;;;1.98;1.70;;;18.30;83.70;;;;;;4975993;28;20042;-89
2023/08/09 02:08:42;;;;;;;2.75;1.60;;;18.20;83.60;;;;;;4987918;28;20033;-96
2023/08/09 02:11:08;;;;;;;4.35;1.73;;;18.20;83.70;;;;;;4976516;28;20027;-94
2023/08/09 02:13:34;;;;;;;2.70;1.67;;;18.20;83.80;;;;;;4996361;28;20436;-94
2023/08/09 02:16:00;;;;;;;4.22;1.58;;;18.20;83.80;;;;;;4975436;28;20192;-93
2023/08/09 02:18:26;;;;;;;4.45;1.52;;;18.20;83.90;;;;;;4976776;28;20031;-94
2023/08/09 02:20:52;;;;;;;3.50;1.80;;;18.20;83.90;;;;;;4984627;28;20034;-94
2023/08/09 02:23:18;;;;;;;3.72;1.73;;;18.20;84.00;;;;;;4975878;28;20248;-95
2023/08/09 02:25:44;;;;;;;3.85;1.80;;;18.20;84.80;;;;;;4984688;28;20019;-96
2023/08/09 02:28:09;;;;;;;3.58;1.73;;;18.20;84.00;;;;;;4977532;28;20026;-95
2023/08/09 02:30:35;;;;;;;4.53;2.03;;;18.30;84.10;;;;;;4977576;28;20023;-94
2023/08/09 02:33:01;;;;;;;3.95;1.58;;;18.30;84.10;;;;;;4985064;28;20031;-94
2023/08/09 02:35:32;;;;;;;2.97;1.48;;;18.30;84.10;;;;;;4978457;28;20019;-95
2023/08/09 02:37:58;;;;;;;2.83;1.38;;;18.30;84.20;;;;;;4985197;28;20027;-94
2023/08/09 02:40:24;;;;;;;4.18;1.65;;;18.20;84.10;;;;;;4979327;28;20019;-96
2023/08/09 02:42:50;;;;;;;2.42;1.55;;;18.20;84.20;;;;;;4981237;28;20117;-96
2023/08/09 02:45:15;;;;;;;2.25;1.95;;;18.20;84.20;;;;;;5000999;28;20575;-96
2023/08/09 02:47:41;;;;;;;2.80;1.80;;;18.20;84.20;;;;;;4980912;28;20383;-94
2023/08/09 02:50:07;;;;;;;2.53;1.80;;;18.20;84.20;;;;;;4991095;28;20022;-95
2023/08/09 02:52:33;;;;;;;3.05;1.75;;;18.20;84.30;;;;;;4981758;28;20019;-95
2023/08/09 02:54:59;;;;;;;6.03;2.15;;;18.20;85.10;;;;;;4990487;28;20019;-94
2023/08/09 02:57:26;;;;;;;8.98;2.17;;;18.20;84.50;;;;;;4981209;28;20023;-95
2023/08/09 02:59:51;;;;;;;3.65;1.90;;;18.20;85.20;;;;;;4977818;28;20466;-96
2023/08/09 03:02:17;;;;;;;2.63;1.98;;;18.20;84.50;;;;;;4996124;28;20057;-96
2023/08/09 03:04:43;;;;;;;2.28;1.58;;;18.20;84.50;;;;;;4979743;28;20046;-94
2023/08/09 03:07:09;;;;;;;2.40;1.60;;;18.20;84.60;;;;;;4987312;28;20023;-95
2023/08/09 03:09:35;;;;;;;3.45;1.98;;;18.20;84.60;;;;;;4976901;28;20457;-96
2023/08/09 03:12:03;;;;;;;2.22;1.65;;;18.20;84.70;;;;;;4989515;28;20403;-95
2023/08/09 03:14:34;;;;;;;4.32;1.65;;;18.20;84.70;;;;;;4983633;28;20034;-88
2023/08/09 03:17:00;;;;;;;6.57;1.70;;;18.20;84.80;;;;;;4979159;28;20050;-95
2023/08/09 03:19:26;;;;;;;5.35;1.77;;;18.20;84.80;;;;;;4996428;28;20019;-95
2023/08/09 03:21:54;;;;;;;1.83;1.50;;;18.20;84.80;;;;;;4976784;28;20030;-94
2023/08/09 03:24:23;;;;;;;3.75;1.50;;;18.20;84.80;;;;;;4979576;28;20019;-95
2023/08/09 03:26:49;;;;;;;3.97;1.75;;;18.20;85.00;;;;;;4976058;28;20115;-95
2023/08/09 03:29:14;;;;;;;3.33;1.45;;;18.30;85.00;;;;;;4974903;28;20038;-92
2023/08/09 03:31:41;;;;;;;2.45;1.60;;;18.20;85.00;;;;;;4974255;28;20027;-95
2023/08/09 03:34:07;;;;;;;2.78;1.40;;;18.20;85.10;;;;;;4980658;28;20444;-95
2023/08/09 03:36:32;;;;;;;1.48;1.33;;;18.20;85.10;;;;;;4973652;28;20027;-95
2023/08/09 03:39:00;;;;;;;3.03;1.42;;;18.20;85.20;;;;;;4975803;28;20635;-94
2023/08/09 03:41:26;;;;;;;1.67;1.27;;;18.20;85.20;;;;;;4993681;28;20020;-96
2023/08/09 03:43:52;;;;;;;4.30;1.77;;;18.20;85.20;;;;;;4979246;28;20113;-95
2023/08/09 03:46:18;;;;;;;5.53;1.92;;;18.20;85.20;;;;;;4975779;28;20030;-94
2023/08/09 03:48:43;;;;;;;3.90;1.52;;;18.20;85.30;;;;;;4975706;28;20026;-96
2023/08/09 03:51:09;;;;;;;3.13;1.60;;;18.20;85.30;;;;;;4974529;28;20027;-93
2023/08/09 03:53:35;;;;;;;2.78;1.65;;;18.20;85.30;;;;;;4990559;28;20027;-95
2023/08/09 03:56:00;;;;;;;3.05;1.42;;;18.20;85.40;;;;;;4974293;28;20395;-94
2023/08/09 03:58:27;;;;;;;6.22;1.77;;;17.90;85.20;;;;;;4975366;28;20029;-92
2023/08/09 04:00:53;;;;;;;2.97;1.77;;;18.20;85.40;;;;;;4974450;28;20119;-94
2023/08/09 04:03:18;;;;;;;4.63;1.30;;;18.20;85.40;;;;;;4973706;28;20050;-93
2023/08/09 04:05:44;;;;;;;7.30;1.67;;;18.20;85.60;;;;;;4975944;28;20097;-96
2023/08/09 04:08:10;;;;;;;1.52;1.40;;;18.20;85.60;;;;;;4974498;28;20472;-96
2023/08/09 04:10:36;;;;;;;5.55;1.80;;;18.20;85.60;;;;;;4993424;28;20031;-93
2023/08/09 04:13:02;;;;;;;2.08;1.27;;;18.20;85.60;;;;;;4978315;28;20026;-94
2023/08/09 04:15:28;;;;;;;2.05;1.27;;;18.20;85.70;;;;;;4935377;28;1169752;-94
2023/08/09 04:17:56;;;;;;;6.10;1.67;;;18.20;85.80;;;;;;4975578;28;20081;-95
2023/08/09 04:20:22;;;;;;;3.78;1.77;;;18.20;85.80;;;;;;4986106;28;20015;-93
2023/08/09 04:22:56;;;;;;;4.18;1.85;;;18.20;85.90;;;;;;4977057;28;20400;-95
2023/08/09 04:26:07;;;;;;;;;;;;;;;;;;;;;
2023/08/09 04:32:49;;;;;;;3.63;2.00;;;18.20;86.00;;;;;;5007136;28;20046;-95
2023/08/09 04:39:33;;;;;;;;;;;;;;;;;;;;;
2023/08/09 04:52:51;;;;;;;3.03;1.73;;;18.20;86.30;;;;;;4918745;29;20079;-93
2023/08/09 04:55:17;;;;;;;3.22;2.00;;;18.20;86.30;;;;;;4885419;29;20576;-95
2023/08/09 04:57:43;;;;;;;2.05;1.50;;;18.10;88.30;;;;;;4899284;29;20028;-95
2023/08/09 05:00:13;;;;;;;1.80;1.60;;;18.10;88.60;;;;;;4903142;29;20052;-95
2023/08/09 05:02:39;;;;;;;4.70;1.75;;;18.10;88.30;;;;;;4893516;29;20120;-94
2023/08/09 05:05:06;;;;;;;3.05;1.50;;;18.10;88.10;;;;;;4900379;29;20032;-93
2023/08/09 05:07:32;;;;;;;7.00;2.33;;;18.10;87.90;;;;;;4890397;29;20028;-96
2023/08/09 05:09:57;;;;;;;2.17;1.27;;;18.10;87.80;;;;;;4901223;29;20179;-95
2023/08/09 05:12:23;;;;;;;2.17;1.60;;;18.10;87.70;;;;;;4890045;29;20036;-94
2023/08/09 05:14:48;;;;;;;2.58;1.70;;;18.20;87.80;;;;;;4890709;29;20092;-96
2023/08/09 05:17:14;;;;;;;3.88;2.08;;;18.20;87.80;;;;;;4898764;29;20071;-96
2023/08/09 05:19:40;;;;;;;5.30;2.10;;;18.90;88.20;;;;;;4885358;29;20039;-96
2023/08/09 05:22:05;;;;;;;3.65;1.83;;;18.20;87.80;;;;;;4933963;28;20054;-93
2023/08/09 05:24:31;;;;;;;2.47;1.35;;;18.30;87.90;;;;;;4966873;28;20615;-96
2023/08/09 05:26:57;;;;;;;4.05;2.00;;;18.10;87.60;;;;;;4980102;28;20023;-96
2023/08/09 05:29:22;;;;;;;4.28;1.52;;;18.10;87.70;;;;;;4985645;28;20468;-95
2023/08/09 05:31:48;;;;;;;3.08;1.85;;;18.10;87.70;;;;;;4985870;28;20038;-94
2023/08/09 05:34:14;;;;;;;8.75;2.05;;;18.10;87.60;;;;;;4983225;28;20062;-95
2023/08/09 05:36:40;;;;;;;2.53;1.83;;;18.20;87.70;;;;;;4983981;28;20503;-95
2023/08/09 05:39:07;;;;;;;3.65;1.80;;;18.10;87.60;;;;;;4984201;28;20026;-95
2023/08/09 05:41:34;;;;;;;3.08;1.58;;;18.10;87.70;;;;;;4985250;28;20058;-96
2023/08/09 05:43:59;;;;;;;2.28;1.90;;;18.30;87.80;;;;;;4993802;28;20049;-94
2023/08/09 05:46:30;;;;;;;2.80;1.60;;;18.10;87.60;;;;;;4982133;28;20062;-95
2023/08/09 05:49:03;;;;;;;1.80;1.50;;;18.20;87.80;;;;;;4987624;28;20046;-94
2023/08/09 05:51:35;;;;;;;3.40;1.88;;;18.10;87.70;;;;;;4991812;28;20464;-96
2023/08/09 05:54:14;;;;;;;2.85;1.75;;;18.10;87.70;;;;;;4972765;28;20118;-96
2023/08/09 05:57:07;;;;;;;;;;;;;;;;;;;;;
2023/08/09 05:59:41;;;;;;;2.47;1.70;;;18.10;87.70;;;;;;4973772;28;20471;-92
2023/08/09 06:02:09;;;;;;;4.90;1.92;;;18.10;87.80;;;;;;4968043;28;20019;-94
2023/08/09 06:04:35;;;;;;;2.88;1.90;;;18.10;87.80;;;;;;4967267;28;20207;-91
2023/08/09 06:07:01;;;;;;;3.33;1.50;;;18.10;87.80;;;;;;4963849;28;20142;-95
2023/08/09 06:09:28;;;;;;;2.35;1.80;;;18.10;87.80;;;;;;4988018;28;20044;-94
2023/08/09 06:11:54;;;;;;;5.68;2.15;;;18.10;87.80;;;;;;4975726;28;20026;-94
2023/08/09 06:14:23;;;;;;;3.80;2.15;;;18.10;87.80;;;;;;4975250;28;20089;-93
2023/08/09 06:16:49;;;;;;;3.40;1.73;;;18.20;88.00;;;;;;4973712;28;20688;-92
2023/08/09 06:23:02;;;;;;;2.45;1.70;;;18.10;88.10;;;;;;4971476;28;20038;-96
2023/08/09 06:25:31;;;;;;;2.60;1.80;;;18.10;88.20;;;;;;4949434;28;20045;-96
2023/08/09 06:27:57;;;;;;;2.55;1.88;;;18.20;88.30;;;;;;4955291;28;20058;-95
2023/08/09 06:30:23;;;;;;;4.53;1.88;;;18.10;88.20;;;;;;4959270;28;20535;-96
2023/08/09 06:33:37;;;;;;;2.22;1.60;;;17.80;88.10;;;;;;4959499;28;20042;-96
2023/08/09 06:36:04;;;;;;;3.90;1.52;;;18.10;88.30;;;;;;4979248;28;20041;-93
2023/08/09 06:39:09;;;;;;;3.55;1.98;;;18.10;88.30;;;;;;4955765;28;20029;-96
2023/08/09 06:41:57;;;;;;;3.03;1.73;;;18.10;88.30;;;;;;4958667;28;20034;-96
2023/08/09 06:44:29;;;;;;;2.58;1.70;;;18.10;88.40;;;;;;4978052;28;20023;-96
2023/08/09 06:47:05;;;;;;;3.67;2.17;;;18.10;88.30;;;;;;4956900;28;20035;-95
2023/08/09 06:53:23;;;;;;;3.13;1.95;;;18.10;88.40;;;;;;4936219;29;20046;-96
2023/08/09 06:59:39;;;;;;;4.32;1.80;;;18.20;88.40;;;;;;4872780;29;20033;-95
2023/08/09 07:02:50;;;;;;;2.53;1.80;;;18.10;88.20;;;;;;4870095;29;20189;-96
2023/08/09 07:06:10;;;;;;;;;;;;;;;;;;;;;
2023/08/09 07:09:23;;;;;;;2.40;1.58;;;18.20;88.40;;;;;;4881314;29;20113;-96
2023/08/09 07:11:52;;;;;;;12.02;1.77;;;18.10;88.30;;;;;;4869620;29;20069;-96
2023/08/09 07:14:23;;;;;;;3.58;1.80;;;18.10;88.20;;;;;;4870110;29;20039;-96
2023/08/09 07:16:54;;;;;;;3.92;1.58;;;18.10;88.30;;;;;;4861851;29;20097;-95
2023/08/09 07:19:20;;;;;;;2.38;1.42;;;18.10;88.10;;;;;;4866606;29;20137;-95
2023/08/09 07:21:48;;;;;;;3.17;2.10;;;18.10;88.00;;;;;;4878365;29;20056;-96
2023/08/09 07:24:14;;;;;;;2.75;1.80;;;18.10;88.00;;;;;;4872779;29;20399;-95
2023/08/09 07:26:40;;;;;;;2.80;1.73;;;18.10;88.00;;;;;;4875127;29;20054;-95
2023/08/09 07:29:08;;;;;;;1.58;1.45;;;17.80;88.20;;;;;;4891535;29;20044;-91
2023/08/09 07:31:45;;;;;;;3.40;1.70;;;18.10;88.50;;;;;;4929336;29;20047;-95
2023/08/09 07:34:14;;;;;;;3.67;1.48;;;18.10;88.30;;;;;;4934442;29;20023;-93
2023/08/09 07:36:40;;;;;;;5.53;1.88;;;18.20;88.30;;;;;;4973863;28;20039;-94
2023/08/09 07:39:09;;;;;;;2.42;1.45;;;18.10;88.00;;;;;;4974093;28;20623;-96
2023/08/09 07:41:35;;;;;;;2.58;1.80;;;18.10;87.90;;;;;;4986177;28;20058;-93
2023/08/09 07:44:01;;;;;;;6.82;2.00;;;18.10;88.00;;;;;;4980814;28;20414;-95
2023/08/09 07:46:27;;;;;;;4.95;2.05;;;18.10;87.90;;;;;;4976437;28;20019;-94
2023/08/09 07:48:56;;;;;;;2.58;1.80;;;18.10;87.90;;;;;;4993303;28;20034;-95
2023/08/09 07:51:22;;;;;;;3.63;1.80;;;18.20;88.20;;;;;;4975357;28;20186;-94
2023/08/09 07:53:47;;;;;;;1.88;1.58;;;18.30;88.50;;;;;;4993191;28;20143;-94
2023/08/09 07:56:14;;;;;;;3.97;1.58;;;18.10;88.10;;;;;;4972146;28;20445;-93
2023/08/09 07:58:39;;;;;;;2.97;1.63;;;18.10;88.10;;;;;;4992863;28;20472;-93
2023/08/09 08:01:08;;;;;;;2.10;1.58;;;18.20;88.30;;;;;;4975733;28;20058;-96
2023/08/09 08:03:33;;;;;;;4.85;1.80;;;18.10;88.20;;;;;;4974440;28;20114;-95
2023/08/09 08:05:59;;;;;;;4.57;1.75;;;18.10;88.10;;;;;;4997590;28;20065;-92
2023/08/09 08:08:25;;;;;;;3.47;1.52;;;18.10;88.00;;;;;;4973567;28;20027;-94
2023/08/09 08:10:50;;;;;;;5.93;1.90;;;18.10;88.10;;;;;;4994391;28;20034;-94
2023/08/09 08:13:16;;;;;;;4.95;1.83;;;18.10;88.00;;;;;;4974051;28;20152;-96
2023/08/09 08:15:42;;;;;;;7.32;1.45;;;18.20;88.00;;;;;;4991556;28;20023;-93
2023/08/09 08:18:08;;;;;;;1.90;1.58;;;18.10;88.00;;;;;;4978550;28;20119;-95
2023/08/09 08:20:34;;;;;;;7.85;1.38;;;18.10;88.10;;;;;;4974657;28;20027;-94
2023/08/09 08:23:00;;;;;;;3.20;1.83;;;18.10;88.00;;;;;;4976033;28;20387;-93
2023/08/09 08:25:26;;;;;;;2.47;1.63;;;18.20;88.20;;;;;;4973189;28;20094;-93
2023/08/09 08:27:51;;;;;;;2.65;1.83;;;18.10;88.30;;;;;;4991317;28;20027;-95
2023/08/09 08:30:19;;;;;;;2.60;1.75;;;18.10;88.20;;;;;;4972488;28;20460;-93
2023/08/09 08:32:46;;;;;;;2.60;1.65;;;18.10;88.10;;;;;;4971028;28;20387;-92
2023/08/09 08:35:13;;;;;;;2.95;1.52;;;18.10;88.10;;;;;;4974325;28;20031;-94
2023/08/09 08:37:42;;;;;;;2.13;1.40;;;18.20;88.30;;;;;;4976075;28;20468;-93
2023/08/09 08:40:14;;;;;;;1.98;1.30;;;18.10;88.30;;;;;;4974406;28;20037;-93
2023/08/09 08:42:41;;;;;;;2.20;1.50;;;18.10;88.20;;;;;;4981848;28;20029;-93
2023/08/09 08:45:11;;;;;;;4.20;1.63;;;18.10;88.30;;;;;;4976137;28;20050;-94
2023/08/09 08:47:41;;;;;;;2.05;1.52;;;18.10;88.30;;;;;;4990578;28;20022;-93
2023/08/09 08:50:09;;;;;;;3.60;1.73;;;18.10;88.60;;;;;;4975258;28;20031;-94
2023/08/09 08:52:42;;;;;;;2.42;1.60;;;18.10;88.50;;;;;;4982714;28;20031;-93
2023/08/09 08:55:09;;;;;;;1.92;1.23;;;18.20;88.40;;;;;;4969893;28;20023;-93
2023/08/09 08:57:39;;;;;;;1.70;1.30;;;18.10;88.30;;;;;;4985025;28;20307;-93
2023/08/09 09:00:15;;;;;;;1.52;1.42;;;18.10;88.30;;;;;;4977704;28;20435;-93
2023/08/09 09:02:44;;;;;;;2.55;1.48;;;18.10;88.50;;;;;;4980725;28;20023;-91
2023/08/09 09:05:12;;;;;;;1.60;1.37;;;18.10;88.50;;;;;;4974223;28;20050;-89
2023/08/09 09:07:41;;;;;;;2.80;1.45;;;18.20;88.60;;;;;;4981932;28;20023;-88
2023/08/09 09:10:12;;;;;;;2.90;1.65;;;18.20;88.70;;;;;;4974159;28;20050;-91
2023/08/09 09:12:37;;;;;;;;;;;18.20;88.70;;;;;;4974213;28;20030;-91
2023/08/09 09:15:04;;;;;;;3.45;1.48;;;18.20;88.60;;;;;;4974386;28;19913;-90
2023/08/09 09:17:36;;;;;;;1.80;1.40;;;18.10;88.60;;;;;;4983142;28;20034;-91
2023/08/09 09:20:02;;;;;;;2.75;1.60;;;18.10;88.60;;;;;;4992090;28;20030;-93
2023/08/09 09:22:29;;;;;;;3.13;1.58;;;18.10;88.70;;;;;;4973847;28;20068;-93
2023/08/09 09:25:00;;;;;;;4.95;1.75;;;18.10;88.80;;;;;;4974145;28;20126;-91
2023/08/09 09:27:29;;;;;;;;;;;18.10;88.80;;;;;;4982571;28;20487;-91
2023/08/09 09:29:55;;;;;;;2.87;1.87;;;18.10;88.80;;;;;;4990914;28;20363;-89
2023/08/09 09:32:20;;;;;;;2.25;1.52;;;18.20;88.80;;;;;;4974982;28;20026;-95
2023/08/09 09:34:49;;;;;;;4.43;1.45;;;18.20;88.90;;;;;;4976623;28;20038;-92
2023/08/09 09:37:17;;;;;;;6.28;1.88;;;18.10;88.90;;;;;;4975205;28;20117;-91
2023/08/09 09:39:43;;;;;;;2.70;1.50;;;18.20;89.10;;;;;;4990040;28;20045;-88
2023/08/09 09:42:10;;;;;;;2.05;1.35;;;18.20;89.20;;;;;;4972933;28;20026;-88
2023/08/09 09:44:36;;;;;;;4.25;1.63;;;18.20;89.10;;;;;;4981212;28;20037;-89
2023/08/09 09:47:03;;;;;;;2.42;1.52;;;18.20;89.20;;;;;;4988876;28;20027;-87
2023/08/09 09:49:33;;;;;;;3.65;1.70;;;18.20;89.20;;;;;;4975707;28;20490;-90
2023/08/09 09:51:59;;;;;;;2.95;1.77;;;18.20;89.20;;;;;;4969654;28;20114;-91
2023/08/09 09:54:26;;;;;;;5.40;1.40;;;18.20;89.20;;;;;;4975702;28;20073;-89
2023/08/09 09:56:51;;;;;;;2.60;1.52;;;18.20;89.30;;;;;;4974653;28;20031;-91
2023/08/09 09:59:17;;;;;;;3.65;1.48;;;18.20;89.40;;;;;;4972633;28;20023;-88
2023/08/09 10:01:47;;;;;;;2.90;1.65;;;18.20;89.50;;;;;;4977434;28;20093;-91
2023/08/09 10:04:14;;;;;;;3.13;1.40;;;18.20;89.40;;;;;;4976643;28;20463;-90
2023/08/09 10:06:43;;;;;;;3.13;1.52;;;18.20;89.50;;;;;;4983315;28;20031;-90
2023/08/09 10:09:10;;;;;;;5.50;1.70;;;18.20;89.60;;;;;;4976328;28;20106;-89
2023/08/09 10:11:36;;;;;;;2.72;1.45;;;18.20;89.50;;;;;;4980834;28;20668;-89
2023/08/09 10:14:05;;;;;;;4.30;2.15;;;18.20;90.20;;;;;;4972188;28;20082;-88
2023/08/09 10:16:32;;;;;;;4.18;1.55;;;18.20;89.70;;;;;;4979160;28;20034;-89
2023/08/09 10:19:08;;;;;;;6.15;1.42;;;18.20;89.60;;;;;;4972444;28;20034;-89
2023/08/09 10:21:34;;;;;;;8.32;4.88;;;18.20;89.90;;;;;;4971493;28;20086;-89
2023/08/09 10:24:12;;;;;;;2.80;1.40;;;18.20;90.00;;;;;;4991523;28;20023;-89
2023/08/09 10:26:39;;;;;;;3.33;1.63;;;18.20;90.00;;;;;;4974021;28;20058;-88
2023/08/09 10:29:21;;;;;;;2.33;1.60;;;18.10;90.20;;;;;;4975638;28;20031;-88
2023/08/09 10:32:02;;;;;;;6.30;1.98;;;18.20;90.20;;;;;;4972297;28;20034;-88
2023/08/09 10:34:36;;;;;;;1.17;1.00;;;18.20;90.10;;;;;;4971179;28;20030;-87
2023/08/09 10:37:04;;;;;;;2.20;1.30;;;18.20;90.30;;;;;;4988049;28;20034;-89
2023/08/09 10:39:31;;;;;;;4.05;1.60;;;18.20;90.20;;;;;;4973250;28;20121;-88
2023/08/09 10:42:01;;;;;;;2.25;1.45;;;18.20;90.10;;;;;;4992265;28;20030;-89
2023/08/09 10:44:51;;;;;;;3.72;1.95;;;18.20;90.10;;;;;;4972166;28;20038;-89
2023/08/09 10:47:24;;;;;;;3.92;1.67;;;18.20;90.20;;;;;;4989302;28;20487;-86
2023/08/09 10:49:53;;;;;;;3.58;1.45;;;18.20;90.10;;;;;;4969937;28;20027;-87
2023/08/09 10:52:20;;;;;;;4.63;1.70;;;18.20;90.20;;;;;;4976782;28;20058;-86
2023/08/09 10:54:48;;;;;;;2.90;1.75;;;18.20;90.20;;;;;;4988789;28;20022;-86
2023/08/09 10:57:16;;;;;;;1.98;1.48;;;18.20;90.30;;;;;;4973293;28;20027;-86
2023/08/09 10:59:43;;;;;;;3.50;1.30;;;18.30;90.30;;;;;;4983513;28;20093;-89
2023/08/09 11:02:09;;;;;;;5.22;1.45;;;18.20;90.30;;;;;;4977629;28;20384;-87
2023/08/09 11:04:35;;;;;;;1.50;1.13;;;18.20;90.40;;;;;;4985596;28;20061;-90
2023/08/09 11:07:01;;;;;;;1.63;1.35;;;18.20;90.30;;;;;;4975802;28;20551;-88
2023/08/09 11:09:27;;;;;;;6.50;1.73;;;18.20;90.40;;;;;;4986112;28;20579;-85
2023/08/09 11:11:53;;;;;;;5.57;1.83;;;18.30;90.40;;;;;;4995379;28;20118;-87
2023/08/09 11:14:22;;;;;;;2.65;1.70;;;18.20;90.30;;;;;;4974672;28;20059;-87
2023/08/09 11:16:48;;;;;;;2.28;1.33;;;18.20;90.40;;;;;;4990958;28;20031;-88
2023/08/09 11:19:19;;;;;;;2.53;1.60;;;18.40;90.50;;;;;;4984183;28;20564;-88
2023/08/09 11:21:48;;;;;;;6.50;2.00;;;18.30;90.50;;;;;;4974558;28;20106;-89
2023/08/09 11:24:16;;;;;;;3.33;1.35;;;18.20;90.50;;;;;;4975725;28;20026;-88
2023/08/09 11:26:48;;;;;;;2.83;1.50;;;18.30;90.50;;;;;;4976859;28;20023;-87
2023/08/09 11:29:15;;;;;;;6.78;1.92;;;18.20;90.60;;;;;;4971854;28;20077;-87
2023/08/09 11:31:45;;;;;;;2.33;1.70;;;18.20;90.60;;;;;;4979554;28;20033;-88
2023/08/09 11:34:11;;;;;;;;;;;18.20;90.60;;;;;;4977137;28;20027;-89
2023/08/09 11:36:38;;;;;;;3.15;1.63;;;18.20;90.50;;;;;;4976422;28;20378;-87
2023/08/09 11:39:05;;;;;;;1.60;1.40;;;18.20;90.50;;;;;;4976633;28;20023;-89
2023/08/09 11:41:43;;;;;;;2.08;1.63;;;18.20;90.50;;;;;;4986538;28;20050;-88
2023/08/09 11:44:12;;;;;;;5.10;1.92;;;18.30;90.60;;;;;;4979843;28;20030;-88
2023/08/09 11:46:40;;;;;;;4.88;1.60;;;18.30;90.80;;;;;;4977118;28;20023;-89
2023/08/09 11:49:06;;;;;;;2.95;1.40;;;18.30;90.70;;;;;;4972279;28;20042;-91
2023/08/09 11:51:36;;;;;;;1.80;1.30;;;18.20;90.70;;;;;;4974482;28;20384;-87
2023/08/09 11:54:03;;;;;;;3.28;1.40;;;18.30;91.00;;;;;;4973392;28;20042;-90
2023/08/09 11:56:33;;;;;;;3.58;1.60;;;18.30;90.80;;;;;;4984470;28;20081;-89
2023/08/09 11:59:01;;;;;;;1.83;1.40;;;18.30;90.70;;;;;;4976307;28;20027;-89
2023/08/09 12:01:29;;;;;;;6.32;1.88;;;18.30;91.00;;;;;;4976515;28;20023;-89
2023/08/09 12:03:59;;;;;;;3.65;1.75;;;18.40;90.80;;;;;;4995237;28;20026;-89
2023/08/09 12:06:38;;;;;;;3.20;1.65;;;18.40;90.70;;;;;;4975408;28;20034;-88
2023/08/09 12:09:30;;;;;;;2.60;1.38;;;18.30;90.70;;;;;;4972055;28;20026;-88
2023/08/09 12:12:16;;;;;;;2.53;1.23;;;18.30;90.80;;;;;;4976909;28;20387;-90
2023/08/09 12:14:45;;;;;;;4.00;1.80;;;18.30;90.80;;;;;;4990574;28;20073;-90
2023/08/09 12:17:22;;;;;;;2.93;1.60;;;18.30;91.00;;;;;;4977568;28;20035;-89
2023/08/09 12:19:48;;;;;;;3.08;1.42;;;18.40;90.90;;;;;;4989128;28;20034;-89
2023/08/09 12:22:14;;;;;;;3.13;1.30;;;18.30;90.90;;;;;;4975709;28;20073;-90
2023/08/09 12:24:43;;;;;;;4.93;1.40;;;18.30;90.80;;;;;;4989339;28;20039;-90
2023/08/09 12:27:09;;;;;;;2.13;1.52;;;18.30;90.90;;;;;;4974856;28;20034;-90
2023/08/09 12:29:35;;;;;;;1.75;1.52;;;18.30;90.90;;;;;;4976939;28;20057;-90
2023/08/09 12:32:01;;;;;;;2.95;1.45;;;18.40;90.90;;;;;;4975919;28;20023;-91
2023/08/09 12:34:27;;;;;;;3.28;1.40;;;18.40;90.90;;;;;;4985919;28;20038;-90
2023/08/09 12:36:53;;;;;;;1.98;1.38;;;18.40;90.90;;;;;;4990788;28;20034;-89
2023/08/09 12:39:20;;;;;;;3.22;1.35;;;18.40;91.00;;;;;;4974279;28;20485;-87
2023/08/09 12:41:45;;;;;;;4.10;1.40;;;18.40;90.90;;;;;;4975655;28;20022;-89
2023/08/09 12:44:11;;;;;;;3.58;1.63;;;18.40;90.90;;;;;;4976633;28;20023;-90
2023/08/09 12:46:38;;;;;;;2.05;1.33;;;18.40;90.90;;;;;;4984977;28;20026;-90
2023/08/09 12:49:04;;;;;;;1.70;1.35;;;18.30;90.90;;;;;;4976464;28;20027;-89
2023/08/09 12:51:30;;;;;;;4.55;1.58;;;18.40;90.90;;;;;;4986057;28;20393;-90
2023/08/09 12:53:56;;;;;;;2.85;1.70;;;18.40;90.90;;;;;;4997722;28;20026;-94
2023/08/09 12:56:22;;;;;;;2.78;1.75;;;18.40;90.90;;;;;;4984186;28;20030;-90
2023/08/09 12:58:48;;;;;;;3.83;1.77;;;18.40;91.00;;;;;;4973946;28;20058;-89
2023/08/09 13:01:14;;;;;;;3.28;1.50;;;18.40;90.90;;;;;;4975583;28;20054;-89
2023/08/09 13:03:39;;;;;;;3.38;1.25;;;18.40;90.90;;;;;;4983051;28;20041;-89
2023/08/09 13:06:05;;;;;;;5.30;1.77;;;18.40;90.90;;;;;;4973767;28;20019;-89
2023/08/09 13:08:31;;;;;;;1.95;1.50;;;18.40;90.90;;;;;;4982041;28;20019;-90
2023/08/09 13:10:57;;;;;;;3.15;1.63;;;18.40;90.90;;;;;;4989768;28;20031;-91
2023/08/09 13:13:23;;;;;;;3.22;1.90;;;18.40;90.90;;;;;;4973444;28;20391;-86
2023/08/09 13:15:49;;;;;;;3.97;1.70;;;18.40;90.90;;;;;;4989581;28;20022;-88
2023/08/09 13:18:14;;;;;;;3.10;1.77;;;18.40;90.90;;;;;;4972584;28;20057;-90
2023/08/09 13:20:40;;;;;;;4.95;1.70;;;18.40;90.90;;;;;;4973687;28;20495;-90
2023/08/09 13:23:09;;;;;;;3.28;1.50;;;18.40;90.90;;;;;;4973650;28;20027;-89
2023/08/09 13:25:34;;;;;;;1.90;1.40;;;18.40;90.90;;;;;;4983101;28;20027;-86
2023/08/09 13:28:03;;;;;;;3.53;1.70;;;18.40;90.90;;;;;;4972973;28;20675;-88
2023/08/09 13:30:29;;;;;;;3.55;1.80;;;18.40;90.80;;;;;;4976573;28;20019;-88